Time;durP1;ratioP1;P1;durP2;ratioP2;P2;SDS_P1;SDS_P2;PMS_P1;PMS_P2;Temp;Humidity;BMP_temperature;BMP_pressure;BME280_temperature;BME280_humidity;BME280_pressure;Samples;Min_cycle;Max_cycle;Signal;HPM_P1;HPM_P2
2023/12/15 05:30:17;;;;;;;0.10;0.10;;;9.80;88.50;;;;;;5973436;23;20107;-79
2023/12/15 05:32:42;;;;;;;0.10;0.10;;;9.80;88.80;;;;;;4919480;29;20115;-79
2023/12/15 05:35:08;;;;;;;0.10;0.10;;;9.70;88.60;;;;;;4934285;29;20032;-79
2023/12/15 05:37:33;;;;;;;0.10;0.10;;;9.80;88.80;;;;;;4919373;29;20052;-80
2023/12/15 05:39:59;;;;;;;0.10;0.10;;;9.80;88.70;;;;;;4905150;29;20036;-79
2023/12/15 05:42:25;;;;;;;0.10;0.10;;;9.80;88.60;;;;;;4921935;29;20027;-79
2023/12/15 05:44:51;;;;;;;0.10;0.10;;;9.90;88.70;;;;;;4939443;29;20023;-79
2023/12/15 05:47:17;;;;;;;0.10;0.10;;;9.90;88.60;;;;;;4914862;29;20085;-80
2023/12/15 05:49:43;;;;;;;0.10;0.10;;;9.90;88.60;;;;;;4919765;29;20080;-79
2023/12/15 05:52:11;;;;;;;0.20;0.20;;;9.90;88.50;;;;;;4910871;29;20055;-77
2023/12/15 05:54:40;;;;;;;0.10;0.10;;;9.90;88.60;;;;;;4902636;29;20028;-81
2023/12/15 05:57:06;;;;;;;0.10;0.10;;;9.90;88.60;;;;;;4902839;29;20032;-78
2023/12/15 05:59:32;;;;;;;0.10;0.10;;;9.80;88.70;;;;;;4901134;29;20470;-77
2023/12/15 06:01:58;;;;;;;0.10;0.10;;;9.90;88.70;;;;;;4899377;29;20037;-77
2023/12/15 06:04:24;;;;;;;0.10;0.10;;;9.90;88.80;;;;;;4914348;29;20096;-75
2023/12/15 06:06:50;;;;;;;0.10;0.10;;;9.90;88.70;;;;;;4923888;29;20036;-77
2023/12/15 06:09:16;;;;;;;0.15;0.15;;;10.00;88.70;;;;;;4938735;29;20035;-76
2023/12/15 06:11:42;;;;;;;0.10;0.10;;;10.00;88.60;;;;;;4921860;29;20023;-75
2023/12/15 06:14:08;;;;;;;0.10;0.10;;;10.00;88.50;;;;;;4930588;29;20029;-77
2023/12/15 06:16:34;;;;;;;0.10;0.10;;;10.00;88.60;;;;;;4905980;29;20028;-80
2023/12/15 06:19:00;;;;;;;0.10;0.10;;;10.00;88.70;;;;;;4911752;29;20021;-77
2023/12/15 06:21:26;;;;;;;0.10;0.10;;;10.10;88.60;;;;;;4907119;29;20036;-79
2023/12/15 06:23:53;;;;;;;0.10;0.10;;;10.00;88.60;;;;;;4919757;29;20024;-83
2023/12/15 06:26:24;;;;;;;0.10;0.10;;;10.10;88.50;;;;;;4902330;29;20036;-84
2023/12/15 06:28:50;;;;;;;0.10;0.10;;;10.10;88.60;;;;;;4918087;29;20050;-80
2023/12/15 06:31:16;;;;;;;0.10;0.10;;;10.10;88.60;;;;;;4908636;29;20078;-80
2023/12/15 06:33:42;;;;;;;0.10;0.10;;;10.00;88.50;;;;;;4917760;29;20818;-78
2023/12/15 06:36:08;;;;;;;0.10;0.10;;;10.00;88.60;;;;;;4917595;29;20048;-77
2023/12/15 06:38:39;;;;;;;0.10;0.10;;;10.00;88.60;;;;;;4899874;29;20029;-78
2023/12/15 06:41:05;;;;;;;0.00;0.00;;;10.00;88.60;;;;;;4925526;29;20413;-76
2023/12/15 06:43:31;;;;;;;0.10;0.10;;;10.00;88.70;;;;;;4925888;29;20060;-76
2023/12/15 06:45:57;;;;;;;0.10;0.10;;;10.00;88.70;;;;;;4915312;29;20025;-77
2023/12/15 06:48:22;;;;;;;0.10;0.10;;;10.00;88.70;;;;;;4918044;29;20450;-77
2023/12/15 06:50:48;;;;;;;0.10;0.10;;;10.10;88.70;;;;;;4919719;29;20028;-77
2023/12/15 06:53:14;;;;;;;0.15;0.15;;;10.10;88.60;;;;;;4916438;29;20044;-76
2023/12/15 06:55:39;;;;;;;0.10;0.10;;;10.00;88.70;;;;;;4908196;29;20095;-78
2023/12/15 06:58:05;;;;;;;0.10;0.10;;;10.00;88.40;;;;;;4910964;29;20078;-76
2023/12/15 07:00:32;;;;;;;0.17;0.10;;;10.00;88.40;;;;;;4914145;29;20091;-76
2023/12/15 07:02:57;;;;;;;0.10;0.10;;;10.00;88.80;;;;;;4908100;29;20036;-76
2023/12/15 07:05:23;;;;;;;0.10;0.10;;;10.00;88.70;;;;;;4909553;29;20043;-76
2023/12/15 07:07:48;;;;;;;0.10;0.10;;;10.00;88.70;;;;;;4906191;29;20842;-76
2023/12/15 07:10:16;;;;;;;0.10;0.10;;;10.00;88.70;;;;;;4906765;29;20036;-76
2023/12/15 07:12:42;;;;;;;0.10;0.10;;;9.90;88.70;;;;;;4909633;29;20033;-76
2023/12/15 07:15:08;;;;;;;0.10;0.10;;;9.90;88.80;;;;;;4915924;29;20507;-76
2023/12/15 07:17:34;;;;;;;0.10;0.10;;;10.00;88.80;;;;;;4912141;29;20025;-76
2023/12/15 07:19:59;;;;;;;0.10;0.10;;;10.00;88.70;;;;;;4914372;29;20033;-76
2023/12/15 07:22:25;;;;;;;0.10;0.10;;;10.00;88.50;;;;;;4900037;29;20024;-76
2023/12/15 07:24:50;;;;;;;0.10;0.10;;;10.00;88.60;;;;;;4911685;29;20037;-76
2023/12/15 07:27:16;;;;;;;0.10;0.10;;;10.00;88.50;;;;;;4915170;29;20151;-75
2023/12/15 07:29:42;;;;;;;0.10;0.10;;;10.00;88.60;;;;;;4932459;29;20122;-75
2023/12/15 07:32:07;;;;;;;0.10;0.10;;;10.00;88.60;;;;;;4918868;29;20052;-76
2023/12/15 07:34:33;;;;;;;0.10;0.10;;;10.00;88.50;;;;;;4916225;29;20906;-76
2023/12/15 07:36:58;;;;;;;0.10;0.10;;;10.00;88.50;;;;;;4918199;29;20079;-75
2023/12/15 07:39:24;;;;;;;0.13;0.10;;;9.90;88.50;;;;;;4899878;29;20067;-76
2023/12/15 07:41:50;;;;;;;0.10;0.10;;;10.00;88.70;;;;;;4918481;29;20028;-76
2023/12/15 07:44:16;;;;;;;0.10;0.10;;;10.00;88.60;;;;;;4902170;29;20032;-76
2023/12/15 07:46:42;;;;;;;0.10;0.10;;;10.00;88.50;;;;;;4904836;29;20538;-75
2023/12/15 07:49:10;;;;;;;0.10;0.10;;;10.00;88.60;;;;;;4916534;29;20044;-75
2023/12/15 07:51:35;;;;;;;0.10;0.10;;;10.00;88.40;;;;;;4918386;29;20068;-75
2023/12/15 07:54:01;;;;;;;0.10;0.10;;;10.10;88.40;;;;;;4921752;29;20028;-77
2023/12/15 07:56:28;;;;;;;0.10;0.10;;;10.10;88.50;;;;;;4921054;29;20024;-78
2023/12/15 07:58:55;;;;;;;0.10;0.10;;;10.10;88.40;;;;;;4913274;29;20047;-77
2023/12/15 08:01:23;;;;;;;0.10;0.10;;;10.10;88.40;;;;;;4905218;29;20036;-76
2023/12/15 08:03:50;;;;;;;0.10;0.10;;;10.00;88.40;;;;;;4920961;29;20171;-76
2023/12/15 08:06:16;;;;;;;0.05;0.05;;;10.00;88.40;;;;;;4917918;29;20028;-76
2023/12/15 08:08:43;;;;;;;0.10;0.10;;;10.00;88.40;;;;;;4915646;29;20046;-77
2023/12/15 08:11:10;;;;;;;0.10;0.10;;;10.00;88.40;;;;;;4903390;29;20080;-76
2023/12/15 08:13:39;;;;;;;0.10;0.10;;;10.00;88.40;;;;;;4919252;29;20073;-77
2023/12/15 08:16:06;;;;;;;0.13;0.13;;;10.00;88.50;;;;;;4917052;29;20046;-77
2023/12/15 08:18:32;;;;;;;0.10;0.10;;;10.00;88.50;;;;;;4914299;29;20032;-76
2023/12/15 08:20:58;;;;;;;0.10;0.10;;;10.00;88.40;;;;;;4903273;29;20099;-76
2023/12/15 08:23:24;;;;;;;0.10;0.10;;;10.10;88.30;;;;;;4917379;29;20036;-76
2023/12/15 08:25:50;;;;;;;0.10;0.10;;;10.10;88.30;;;;;;4915258;29;20084;-76
2023/12/15 08:28:15;;;;;;;0.10;0.10;;;10.10;88.20;;;;;;4917787;29;20034;-76
2023/12/15 08:30:41;;;;;;;0.10;0.10;;;10.10;88.10;;;;;;4918280;29;20095;-77
2023/12/15 08:33:07;;;;;;;0.10;0.10;;;10.10;88.20;;;;;;4919123;29;20040;-76
2023/12/15 08:35:33;;;;;;;0.10;0.10;;;10.10;88.10;;;;;;4920960;29;20083;-76
2023/12/15 08:37:58;;;;;;;0.13;0.13;;;10.00;88.30;;;;;;4918681;29;20040;-76
2023/12/15 08:40:24;;;;;;;0.10;0.10;;;10.20;88.30;;;;;;4918539;29;20036;-76
2023/12/15 08:42:50;;;;;;;0.10;0.10;;;10.20;88.10;;;;;;4896803;29;20041;-76
2023/12/15 08:45:16;;;;;;;0.10;0.10;;;10.20;88.10;;;;;;4897905;29;20028;-76
2023/12/15 08:47:42;;;;;;;0.10;0.10;;;10.30;88.00;;;;;;4899889;29;20079;-76
2023/12/15 08:50:08;;;;;;;0.10;0.10;;;10.30;87.90;;;;;;4915458;29;20021;-76
2023/12/15 08:56:02;;;;;;;0.10;0.10;;;10.30;87.80;;;;;;4904144;29;20032;-81
2023/12/15 08:58:28;;;;;;;0.10;0.10;;;10.20;87.80;;;;;;4918608;29;20028;-81
2023/12/15 09:00:54;;;;;;;0.10;0.10;;;10.20;87.80;;;;;;4914461;29;20019;-81
2023/12/15 09:03:20;;;;;;;0.10;0.10;;;10.20;87.90;;;;;;4908590;29;20040;-81
2023/12/15 09:05:46;;;;;;;0.10;0.10;;;10.20;87.90;;;;;;4918894;29;20020;-81
2023/12/15 09:08:12;;;;;;;0.10;0.10;;;10.30;87.90;;;;;;4917655;29;20024;-81
2023/12/15 09:10:43;;;;;;;0.10;0.10;;;10.30;87.80;;;;;;4919226;29;20392;-82
2023/12/15 09:13:11;;;;;;;0.10;0.10;;;10.40;87.80;;;;;;4892525;29;20261;-82
2023/12/15 09:15:36;;;;;;;0.10;0.10;;;10.50;87.50;;;;;;4918976;29;20028;-82
2023/12/15 09:18:02;;;;;;;0.10;0.10;;;10.50;87.40;;;;;;4917859;29;20035;-82
2023/12/15 09:20:28;;;;;;;0.10;0.10;;;10.50;87.40;;;;;;4900681;29;20032;-82
2023/12/15 09:22:56;;;;;;;0.10;0.10;;;10.60;87.60;;;;;;4897002;29;20033;-81
2023/12/15 09:25:22;;;;;;;0.10;0.10;;;10.70;87.50;;;;;;4900977;29;20123;-82
2023/12/15 09:27:47;;;;;;;0.10;0.10;;;10.70;87.40;;;;;;4919371;29;20055;-82
2023/12/15 09:30:13;;;;;;;0.10;0.10;;;10.80;87.30;;;;;;4906747;29;20123;-82
2023/12/15 09:32:39;;;;;;;0.10;0.10;;;10.80;86.90;;;;;;4919131;29;20027;-85
2023/12/15 09:35:06;;;;;;;0.10;0.10;;;10.80;87.10;;;;;;4916688;29;20455;-85
2023/12/15 09:37:32;;;;;;;0.10;0.10;;;10.80;86.70;;;;;;4919687;29;20024;-85
2023/12/15 09:39:57;;;;;;;0.10;0.10;;;10.80;86.60;;;;;;4920501;29;20027;-85
2023/12/15 09:42:23;;;;;;;0.10;0.10;;;10.80;86.40;;;;;;4918223;29;20084;-85
2023/12/15 09:44:50;;;;;;;0.10;0.10;;;10.80;86.40;;;;;;4909792;29;20036;-85
2023/12/15 09:47:20;;;;;;;0.10;0.10;;;10.90;86.20;;;;;;4919809;29;20020;-84
2023/12/15 09:49:51;;;;;;;0.10;0.10;;;10.90;86.10;;;;;;4900718;29;20033;-84
2023/12/15 09:52:18;;;;;;;0.10;0.10;;;11.00;86.00;;;;;;4899976;29;20562;-84
2023/12/15 09:54:44;;;;;;;0.10;0.10;;;11.00;85.60;;;;;;4910187;29;20017;-85
2023/12/15 09:57:12;;;;;;;0.15;0.15;;;11.00;85.80;;;;;;4919301;29;20832;-84
2023/12/15 09:59:41;;;;;;;0.10;0.10;;;11.00;85.40;;;;;;4900796;29;20063;-85
2023/12/15 10:02:07;;;;;;;0.10;0.10;;;11.10;85.80;;;;;;4910023;29;20024;-85
2023/12/15 10:04:32;;;;;;;0.10;0.10;;;11.00;85.60;;;;;;4901030;29;20072;-86
2023/12/15 10:06:58;;;;;;;0.10;0.10;;;11.10;85.50;;;;;;4900288;29;20027;-85
2023/12/15 10:09:24;;;;;;;0.10;0.10;;;11.10;85.60;;;;;;4900681;29;20111;-86
2023/12/15 10:11:50;;;;;;;0.10;0.10;;;11.20;85.70;;;;;;4909542;29;20034;-83
2023/12/15 10:14:19;;;;;;;0.10;0.10;;;11.20;85.30;;;;;;4916367;29;20174;-82
2023/12/15 10:16:46;;;;;;;0.10;0.10;;;11.20;84.50;;;;;;4917094;29;20028;-82
2023/12/15 10:19:12;;;;;;;0.10;0.10;;;11.30;85.00;;;;;;4901706;29;20376;-82
2023/12/15 10:21:37;;;;;;;0.10;0.10;;;11.30;85.00;;;;;;4918817;29;20032;-82
2023/12/15 10:24:24;;;;;;;0.17;0.17;;;11.30;84.60;;;;;;4900084;29;20059;-82
2023/12/15 10:26:50;;;;;;;0.10;0.10;;;11.40;84.20;;;;;;4900441;29;20040;-82
2023/12/15 10:29:20;;;;;;;0.10;0.10;;;11.40;84.30;;;;;;4902590;29;20118;-82
2023/12/15 10:31:49;;;;;;;0.10;0.10;;;11.40;84.20;;;;;;4909333;29;20044;-82
2023/12/15 10:34:15;;;;;;;0.20;0.20;;;11.40;83.60;;;;;;4917972;29;20482;-82
2023/12/15 10:36:45;;;;;;;0.10;0.10;;;11.30;84.00;;;;;;4918974;29;20107;-81
2023/12/15 10:39:13;;;;;;;0.10;0.10;;;11.30;83.20;;;;;;4918284;29;20031;-82
2023/12/15 10:41:39;;;;;;;0.10;0.10;;;11.40;82.20;;;;;;4910260;29;20064;-82
2023/12/15 10:44:06;;;;;;;0.10;0.10;;;11.50;82.40;;;;;;4914674;29;20462;-82
2023/12/15 10:46:33;;;;;;;0.10;0.10;;;11.50;82.50;;;;;;4920163;29;20127;-81
2023/12/15 10:48:59;;;;;;;0.10;0.10;;;11.60;82.80;;;;;;4902588;29;20031;-81
2023/12/15 10:51:26;;;;;;;0.10;0.10;;;11.60;81.90;;;;;;4905650;29;20040;-82
2023/12/15 10:53:56;;;;;;;0.10;0.10;;;11.70;82.00;;;;;;4904947;29;20028;-81
2023/12/15 10:56:22;;;;;;;0.10;0.10;;;11.70;81.60;;;;;;4918155;29;20039;-83
2023/12/15 10:58:49;;;;;;;0.20;0.20;;;11.80;81.70;;;;;;4918193;29;20043;-83
2023/12/15 11:01:16;;;;;;;0.20;0.20;;;11.80;81.40;;;;;;4899860;29;20040;-82
2023/12/15 11:03:43;;;;;;;0.10;0.10;;;11.90;81.50;;;;;;4917255;29;20055;-82
2023/12/15 11:06:09;;;;;;;0.10;0.10;;;11.90;81.40;;;;;;4915814;29;20028;-82
2023/12/15 11:08:35;;;;;;;0.10;0.10;;;11.90;80.30;;;;;;4916690;29;20115;-82
2023/12/15 11:11:07;;;;;;;0.10;0.10;;;12.00;81.50;;;;;;4922092;29;20063;-84
2023/12/15 11:13:51;;;;;;;0.10;0.10;;;12.00;81.10;;;;;;4922628;29;20028;-84
2023/12/15 11:16:23;;;;;;;0.10;0.10;;;12.00;80.40;;;;;;4902561;29;20074;-82
2023/12/15 11:18:51;;;;;;;0.10;0.10;;;12.00;80.80;;;;;;4922783;29;20096;-81
2023/12/15 11:21:18;;;;;;;0.10;0.10;;;11.90;80.00;;;;;;4906006;29;20320;-79
2023/12/15 11:23:58;;;;;;;0.10;0.10;;;12.00;81.00;;;;;;4922870;29;20032;-83
2023/12/15 11:26:29;;;;;;;0.10;0.10;;;12.00;80.40;;;;;;4921483;29;20107;-88
2023/12/15 11:29:02;;;;;;;0.10;0.10;;;12.00;80.50;;;;;;4922898;29;20043;-87
2023/12/15 11:31:28;;;;;;;0.10;0.10;;;12.00;79.60;;;;;;4918494;29;20045;-83
2023/12/15 11:33:55;;;;;;;0.20;0.20;;;12.10;79.50;;;;;;4905835;29;20040;-90
2023/12/15 11:36:21;;;;;;;0.10;0.10;;;12.20;80.30;;;;;;4906870;29;20187;-80
2023/12/15 11:38:49;;;;;;;0.10;0.10;;;12.20;79.70;;;;;;4923507;29;20036;-87
2023/12/15 11:41:18;;;;;;;0.10;0.10;;;12.20;79.70;;;;;;4902419;29;20127;-87
2023/12/15 11:43:44;;;;;;;0.10;0.10;;;12.20;78.50;;;;;;4890702;29;20032;-84
2023/12/15 11:46:11;;;;;;;0.10;0.10;;;12.20;79.10;;;;;;4909747;29;20039;-82
2023/12/15 11:48:36;;;;;;;0.10;0.10;;;12.20;78.70;;;;;;4914999;29;20088;-83
2023/12/15 11:51:03;;;;;;;0.10;0.10;;;12.20;78.90;;;;;;4903077;29;20033;-83
2023/12/15 11:53:29;;;;;;;0.10;0.10;;;12.20;78.90;;;;;;4909885;29;20055;-84
2023/12/15 11:55:57;;;;;;;0.10;0.10;;;12.20;78.30;;;;;;4904640;29;20040;-86
2023/12/15 11:58:23;;;;;;;0.10;0.10;;;12.20;78.30;;;;;;4903134;29;20032;-83
2023/12/15 12:00:49;;;;;;;0.10;0.10;;;12.20;78.60;;;;;;4901380;29;20036;-82
2023/12/15 12:03:15;;;;;;;0.10;0.10;;;12.20;79.00;;;;;;4905215;29;20032;-82
2023/12/15 12:05:53;;;;;;;0.10;0.10;;;12.20;77.90;;;;;;4904966;29;20787;-86
2023/12/15 12:08:21;;;;;;;0.10;0.10;;;12.20;77.50;;;;;;4920353;29;20020;-85
2023/12/15 12:10:47;;;;;;;0.10;0.10;;;12.30;78.20;;;;;;4922082;29;20024;-84
2023/12/15 12:13:14;;;;;;;0.10;0.10;;;12.20;76.50;;;;;;4919287;29;20028;-84
2023/12/15 12:15:50;;;;;;;0.10;0.10;;;12.10;77.30;;;;;;4905732;29;20039;-83
2023/12/15 12:18:17;;;;;;;0.10;0.10;;;12.20;78.10;;;;;;4918274;29;20044;-84
2023/12/15 12:20:43;;;;;;;0.10;0.10;;;12.10;77.70;;;;;;4917353;29;20402;-84
2023/12/15 12:23:09;;;;;;;0.10;0.10;;;12.00;76.30;;;;;;4920693;29;20040;-84
2023/12/15 12:25:34;;;;;;;0.10;0.10;;;12.00;76.90;;;;;;4920749;29;20028;-83
2023/12/15 12:28:00;;;;;;;0.10;0.10;;;12.00;76.20;;;;;;4918296;29;20043;-82
2023/12/15 12:30:28;;;;;;;0.10;0.10;;;12.20;75.30;;;;;;4902830;29;20052;-81
2023/12/15 12:32:53;;;;;;;0.10;0.10;;;12.20;75.00;;;;;;4917809;29;20506;-82
2023/12/15 12:35:19;;;;;;;0.10;0.10;;;12.10;74.90;;;;;;4923107;29;20427;-81
2023/12/15 12:37:44;;;;;;;0.10;0.10;;;12.00;74.70;;;;;;4915660;29;20039;-83
2023/12/15 12:40:11;;;;;;;0.10;0.10;;;11.80;72.60;;;;;;4926435;29;20027;-83
2023/12/15 12:42:36;;;;;;;0.10;0.10;;;11.80;73.90;;;;;;4902671;29;20115;-84
2023/12/15 12:45:02;;;;;;;0.10;0.10;;;11.80;73.60;;;;;;4902167;29;20063;-84
2023/12/15 12:47:28;;;;;;;0.10;0.10;;;11.70;73.10;;;;;;4912127;29;20719;-82
2023/12/15 12:49:54;;;;;;;0.10;0.10;;;11.90;74.80;;;;;;4886846;29;20037;-85
2023/12/15 12:52:20;;;;;;;0.10;0.10;;;12.10;72.80;;;;;;4919251;29;20384;-82
2023/12/15 12:54:46;;;;;;;0.10;0.10;;;12.30;72.70;;;;;;4899055;29;20123;-83
2023/12/15 12:57:12;;;;;;;0.10;0.10;;;12.40;70.60;;;;;;4901110;29;20568;-84
2023/12/15 12:59:37;;;;;;;0.10;0.10;;;12.40;71.00;;;;;;4900651;29;20028;-84
2023/12/15 13:02:03;;;;;;;0.13;0.10;;;12.40;69.50;;;;;;4900446;29;20067;-83
2023/12/15 13:04:29;;;;;;;0.10;0.10;;;12.40;70.90;;;;;;4915101;29;20502;-83
2023/12/15 13:06:54;;;;;;;0.10;0.10;;;12.50;69.80;;;;;;4915339;29;20071;-83
2023/12/15 13:09:20;;;;;;;0.10;0.10;;;12.30;66.60;;;;;;4906239;29;20064;-82
2023/12/15 13:11:47;;;;;;;0.10;0.10;;;12.30;68.70;;;;;;4902087;29;20031;-83
2023/12/15 13:14:14;;;;;;;0.10;0.10;;;12.30;67.30;;;;;;4918281;29;20024;-83
2023/12/15 13:16:39;;;;;;;0.10;0.10;;;12.30;68.50;;;;;;4914652;29;20032;-83
2023/12/15 13:19:05;;;;;;;0.10;0.10;;;12.30;69.70;;;;;;4918298;29;20115;-83
2023/12/15 13:21:31;;;;;;;0.10;0.10;;;12.30;69.50;;;;;;4900239;29;20149;-80
2023/12/15 13:23:57;;;;;;;0.10;0.10;;;12.30;70.00;;;;;;4918207;29;20036;-80
2023/12/15 13:26:22;;;;;;;0.10;0.10;;;12.30;68.00;;;;;;4896148;29;20562;-80
2023/12/15 13:28:48;;;;;;;0.10;0.10;;;12.30;68.40;;;;;;4901107;29;20083;-80
2023/12/15 13:31:15;;;;;;;0.10;0.10;;;12.30;68.20;;;;;;4916110;29;20052;-80
2023/12/15 13:33:46;;;;;;;0.10;0.10;;;12.20;66.50;;;;;;4918225;29;20033;-80
2023/12/15 13:36:15;;;;;;;0.10;0.10;;;12.30;66.90;;;;;;4918584;29;20038;-81
2023/12/15 13:38:46;;;;;;;0.10;0.10;;;12.30;66.10;;;;;;4913403;29;20081;-80
2023/12/15 13:41:13;;;;;;;0.00;0.00;;;12.30;68.30;;;;;;4903771;29;20040;-80
2023/12/15 13:43:39;;;;;;;0.10;0.10;;;12.30;66.30;;;;;;4894901;29;20082;-79
2023/12/15 13:46:05;;;;;;;0.10;0.10;;;12.30;66.60;;;;;;4912366;29;20605;-79
2023/12/15 13:48:32;;;;;;;0.10;0.10;;;12.30;66.30;;;;;;4917688;29;20024;-80
2023/12/15 13:50:58;;;;;;;0.10;0.10;;;12.30;67.10;;;;;;4918848;29;20040;-80
2023/12/15 13:53:25;;;;;;;0.10;0.10;;;12.20;66.60;;;;;;4917786;29;20488;-80
2023/12/15 13:55:55;;;;;;;0.10;0.10;;;12.10;65.80;;;;;;4899822;29;20036;-79
2023/12/15 13:58:20;;;;;;;0.10;0.10;;;12.10;66.90;;;;;;4916409;29;20036;-80
2023/12/15 14:00:49;;;;;;;0.10;0.10;;;12.10;66.00;;;;;;4917385;29;20032;-79
2023/12/15 14:03:14;;;;;;;0.10;0.10;;;12.20;65.40;;;;;;4917153;29;20123;-80
2023/12/15 14:05:41;;;;;;;0.10;0.10;;;12.20;66.70;;;;;;4900570;29;20059;-80
2023/12/15 14:08:07;;;;;;;0.10;0.10;;;12.20;66.30;;;;;;4911490;29;20386;-80
2023/12/15 14:10:33;;;;;;;0.10;0.10;;;12.10;64.80;;;;;;4900632;29;20092;-79
2023/12/15 14:12:58;;;;;;;0.10;0.10;;;12.20;64.80;;;;;;4913627;29;20028;-80
2023/12/15 14:15:24;;;;;;;0.10;0.10;;;12.20;64.40;;;;;;4918268;29;20032;-80
2023/12/15 14:17:50;;;;;;;0.10;0.10;;;12.20;64.20;;;;;;4900422;29;20095;-81
2023/12/15 14:20:16;;;;;;;0.10;0.10;;;12.10;63.60;;;;;;4913074;29;20043;-80
2023/12/15 14:22:42;;;;;;;0.10;0.10;;;12.10;62.70;;;;;;4900882;29;20059;-80
2023/12/15 14:25:09;;;;;;;0.10;0.10;;;12.10;65.20;;;;;;4917444;29;20108;-81
2023/12/15 14:27:35;;;;;;;0.10;0.10;;;12.10;65.10;;;;;;4914392;29;20028;-81
2023/12/15 14:30:02;;;;;;;0.10;0.10;;;12.10;65.90;;;;;;4917513;29;20546;-80
2023/12/15 14:32:27;;;;;;;0.10;0.10;;;12.20;66.20;;;;;;4899380;29;20192;-80
2023/12/15 14:34:53;;;;;;;0.10;0.10;;;12.20;66.50;;;;;;4900658;29;20064;-80
2023/12/15 14:37:20;;;;;;;0.10;0.10;;;12.10;65.00;;;;;;4916827;29;20032;-80
2023/12/15 14:39:49;;;;;;;0.10;0.10;;;12.20;65.10;;;;;;4901448;29;20032;-80
2023/12/15 14:42:15;;;;;;;0.10;0.10;;;12.20;64.90;;;;;;4917162;29;20142;-80
2023/12/15 14:44:41;;;;;;;0.10;0.10;;;12.10;64.90;;;;;;4917141;29;20040;-80
2023/12/15 14:47:07;;;;;;;0.10;0.10;;;12.10;64.50;;;;;;4917480;29;20107;-80
2023/12/15 14:49:33;;;;;;;0.10;0.10;;;12.00;63.60;;;;;;4915721;29;20067;-80
2023/12/15 14:51:59;;;;;;;0.10;0.10;;;12.00;65.40;;;;;;4917239;29;20136;-80
2023/12/15 14:54:25;;;;;;;0.10;0.10;;;12.00;65.00;;;;;;4915374;29;20044;-79
2023/12/15 14:56:50;;;;;;;0.10;0.10;;;12.00;66.50;;;;;;4899495;29;20024;-79
2023/12/15 14:59:16;;;;;;;0.10;0.10;;;12.00;65.70;;;;;;4912915;29;20096;-80
2023/12/15 15:01:42;;;;;;;0.10;0.10;;;12.10;66.30;;;;;;4917617;29;20129;-79
2023/12/15 15:04:07;;;;;;;0.10;0.10;;;12.00;67.00;;;;;;4899673;29;20043;-80
2023/12/15 15:06:33;;;;;;;0.10;0.10;;;12.00;66.70;;;;;;4912123;29;20024;-80
2023/12/15 15:08:59;;;;;;;0.10;0.10;;;12.00;66.30;;;;;;4917120;29;20064;-80
2023/12/15 15:11:25;;;;;;;0.10;0.10;;;11.90;65.40;;;;;;4899204;29;20028;-80
2023/12/15 15:13:51;;;;;;;0.10;0.10;;;11.80;66.10;;;;;;4899373;29;20448;-79
2023/12/15 15:16:17;;;;;;;0.10;0.10;;;11.80;67.10;;;;;;4901722;29;20407;-79
2023/12/15 15:18:42;;;;;;;0.10;0.10;;;11.80;67.10;;;;;;4918560;29;20032;-80
2023/12/15 15:21:08;;;;;;;0.10;0.10;;;11.80;68.20;;;;;;4903126;29;20112;-79
2023/12/15 15:23:33;;;;;;;0.10;0.10;;;11.90;68.80;;;;;;4899904;29;20119;-83
2023/12/15 15:25:59;;;;;;;0.10;0.10;;;11.80;68.10;;;;;;4899400;29;20021;-83
2023/12/15 15:28:25;;;;;;;0.10;0.10;;;11.80;68.10;;;;;;4900116;29;20071;-78
2023/12/15 15:30:50;;;;;;;0.10;0.10;;;11.80;67.90;;;;;;4917379;29;20594;-77
2023/12/15 15:33:16;;;;;;;0.10;0.10;;;11.70;68.00;;;;;;4915288;29;20043;-81
2023/12/15 15:35:41;;;;;;;0.10;0.10;;;11.70;66.20;;;;;;4900560;29;20087;-81
2023/12/15 15:38:07;;;;;;;0.10;0.10;;;11.60;67.00;;;;;;4911515;29;20036;-81
2023/12/15 15:40:34;;;;;;;0.10;0.10;;;11.70;68.60;;;;;;4918717;29;20107;-80
2023/12/15 15:43:00;;;;;;;0.10;0.10;;;11.60;68.70;;;;;;4917920;29;20032;-81
2023/12/15 15:45:26;;;;;;;0.10;0.10;;;11.60;68.30;;;;;;4904799;29;20041;-80
2023/12/15 15:47:54;;;;;;;0.10;0.10;;;11.60;68.30;;;;;;4917594;29;20067;-81
2023/12/15 15:50:20;;;;;;;0.10;0.10;;;11.50;69.20;;;;;;4906585;29;20037;-81
2023/12/15 15:52:45;;;;;;;0.10;0.10;;;11.50;68.50;;;;;;4900540;29;20410;-81
2023/12/15 15:55:15;;;;;;;0.10;0.10;;;11.50;67.80;;;;;;4920743;29;20024;-81
2023/12/15 15:57:42;;;;;;;0.10;0.10;;;11.50;68.90;;;;;;4915073;29;20115;-81
2023/12/15 16:00:08;;;;;;;0.10;0.10;;;11.40;67.40;;;;;;4902763;29;20032;-81
2023/12/15 16:02:34;;;;;;;0.10;0.10;;;11.40;70.30;;;;;;4902223;29;20035;-81
2023/12/15 16:04:59;;;;;;;0.10;0.10;;;11.30;72.10;;;;;;4920352;29;20024;-81
2023/12/15 16:07:25;;;;;;;0.10;0.10;;;11.30;71.00;;;;;;4917915;29;20081;-81
2023/12/15 16:09:52;;;;;;;0.10;0.10;;;11.20;70.60;;;;;;4920817;29;20125;-81
2023/12/15 16:12:18;;;;;;;0.10;0.10;;;11.10;68.90;;;;;;4921426;29;20024;-81
2023/12/15 16:14:43;;;;;;;0.10;0.10;;;11.00;69.40;;;;;;4917892;29;20093;-81
2023/12/15 16:17:09;;;;;;;0.10;0.10;;;11.00;72.40;;;;;;4920787;29;20058;-81
2023/12/15 16:19:35;;;;;;;0.10;0.10;;;11.00;72.70;;;;;;4903560;29;20122;-81
2023/12/15 16:22:02;;;;;;;0.05;0.05;;;10.90;73.10;;;;;;4888373;29;20177;-81
2023/12/15 16:24:27;;;;;;;0.10;0.10;;;10.80;73.50;;;;;;4920904;29;20031;-81
2023/12/15 16:26:53;;;;;;;0.10;0.10;;;10.80;73.60;;;;;;4921270;29;20036;-81
2023/12/15 16:29:19;;;;;;;0.10;0.10;;;10.80;73.80;;;;;;4920496;29;20020;-80
2023/12/15 16:31:44;;;;;;;0.10;0.10;;;10.80;73.90;;;;;;4912930;29;20182;-87
2023/12/15 16:34:10;;;;;;;0.10;0.10;;;10.70;73.80;;;;;;4920955;29;20884;-92
2023/12/15 16:36:36;;;;;;;0.10;0.10;;;10.80;73.70;;;;;;4920312;29;20494;-89
2023/12/15 16:39:02;;;;;;;0.10;0.10;;;10.70;74.00;;;;;;4923806;29;20198;-92
2023/12/15 16:41:34;;;;;;;0.10;0.10;;;10.70;73.60;;;;;;4921390;29;20634;-87
2023/12/15 16:44:00;;;;;;;0.10;0.10;;;10.70;73.30;;;;;;4918612;29;20029;-90
2023/12/15 16:46:26;;;;;;;0.10;0.10;;;10.60;73.60;;;;;;4921280;29;20510;-91
2023/12/15 16:48:52;;;;;;;0.10;0.10;;;10.60;73.70;;;;;;4918335;29;20062;-89
2023/12/15 16:51:19;;;;;;;0.10;0.10;;;10.60;74.10;;;;;;4917721;29;20032;-82
2023/12/15 16:53:51;;;;;;;0.10;0.10;;;10.50;72.70;;;;;;4916815;29;20028;-81
2023/12/15 16:56:22;;;;;;;0.10;0.10;;;10.50;73.20;;;;;;4908144;29;20147;-77
2023/12/15 16:58:49;;;;;;;0.10;0.10;;;10.50;74.10;;;;;;4913722;29;20028;-77
2023/12/15 17:01:15;;;;;;;0.10;0.10;;;10.50;74.40;;;;;;4918964;29;20092;-80
2023/12/15 17:03:41;;;;;;;0.10;0.10;;;10.40;74.50;;;;;;4916740;29;20028;-78
2023/12/15 17:06:11;;;;;;;0.10;0.10;;;10.30;74.10;;;;;;4915152;29;20115;-76
2023/12/15 17:08:44;;;;;;;0.10;0.10;;;10.30;74.80;;;;;;4918281;29;20030;-82
2023/12/15 17:11:10;;;;;;;0.10;0.10;;;10.20;75.20;;;;;;4919557;29;20036;-82
2023/12/15 17:13:36;;;;;;;0.20;0.20;;;10.20;75.60;;;;;;4919218;29;20410;-82
2023/12/15 17:16:02;;;;;;;0.10;0.10;;;10.10;75.40;;;;;;4917756;29;20020;-84
2023/12/15 17:18:28;;;;;;;0.10;0.10;;;10.00;75.70;;;;;;4916993;29;20087;-82
2023/12/15 17:20:53;;;;;;;0.10;0.10;;;10.10;75.50;;;;;;4916971;29;20032;-82
2023/12/15 17:23:19;;;;;;;0.10;0.10;;;10.00;75.90;;;;;;4918866;29;20028;-82
2023/12/15 17:25:45;;;;;;;0.10;0.10;;;10.00;76.60;;;;;;4918234;29;20368;-83
2023/12/15 17:28:10;;;;;;;0.10;0.10;;;9.90;75.90;;;;;;4918868;29;20040;-83
2023/12/15 17:30:36;;;;;;;0.10;0.10;;;10.00;76.70;;;;;;4914786;29;20136;-83
2023/12/15 17:33:02;;;;;;;0.10;0.10;;;9.90;76.20;;;;;;4918166;29;20032;-83
2023/12/15 17:35:28;;;;;;;0.10;0.10;;;9.90;76.40;;;;;;4917562;29;20028;-81
2023/12/15 17:37:54;;;;;;;0.10;0.10;;;9.90;76.10;;;;;;4901222;29;20087;-82
2023/12/15 17:40:19;;;;;;;0.10;0.10;;;9.90;76.00;;;;;;4916736;29;20710;-80
2023/12/15 17:42:45;;;;;;;0.10;0.10;;;9.90;76.00;;;;;;4915146;29;20032;-82
2023/12/15 17:45:11;;;;;;;0.10;0.10;;;9.90;76.60;;;;;;4917592;29;20106;-83
2023/12/15 17:47:37;;;;;;;0.10;0.10;;;10.00;77.10;;;;;;4900796;29;20047;-82
2023/12/15 17:50:03;;;;;;;0.10;0.10;;;9.90;77.50;;;;;;4918219;29;20036;-82
2023/12/15 17:52:29;;;;;;;0.10;0.10;;;9.90;77.20;;;;;;4917615;29;20501;-82
2023/12/15 17:54:54;;;;;;;0.10;0.10;;;9.90;77.10;;;;;;4917815;29;20051;-82
2023/12/15 17:57:20;;;;;;;0.10;0.10;;;9.90;77.10;;;;;;4890096;29;20051;-82
2023/12/15 17:59:45;;;;;;;0.10;0.10;;;9.90;76.80;;;;;;4897491;29;20119;-82
2023/12/15 18:02:11;;;;;;;0.10;0.10;;;9.90;77.20;;;;;;4916376;29;20039;-82
2023/12/15 18:04:37;;;;;;;0.10;0.10;;;9.90;77.00;;;;;;4916427;29;20028;-82
2023/12/15 18:07:03;;;;;;;0.10;0.10;;;9.90;77.20;;;;;;4900307;29;20058;-81
2023/12/15 18:09:29;;;;;;;0.10;0.10;;;9.90;77.00;;;;;;4898004;29;20317;-86
2023/12/15 18:11:55;;;;;;;0.10;0.10;;;9.90;76.70;;;;;;4914307;29;20024;-81
2023/12/15 18:14:21;;;;;;;0.10;0.10;;;9.90;77.30;;;;;;4901328;29;20786;-82
2023/12/15 18:16:47;;;;;;;0.10;0.10;;;9.90;77.60;;;;;;4917913;29;20040;-82